sensor_id;sensor_type;location;lat;lon;timestamp;P1;durP1;ratioP1;P2;durP2;ratioP2
43552;SDS011;29153;42.696;23.218;2023-11-21T00:01:06;7.33;;;2.95;;
43552;SDS011;29153;42.696;23.218;2023-11-21T00:03:34;7.03;;;2.90;;
43552;SDS011;29153;42.696;23.218;2023-11-21T00:06:01;6.10;;;2.95;;
43552;SDS011;29153;42.696;23.218;2023-11-21T00:08:30;7.90;;;2.85;;
43552;SDS011;29153;42.696;23.218;2023-11-21T00:10:57;5.45;;;2.25;;
43552;SDS011;29153;42.696;23.218;2023-11-21T00:13:26;6.00;;;3.00;;
43552;SDS011;29153;42.696;23.218;2023-11-21T00:15:53;7.30;;;2.60;;
43552;SDS011;29153;42.696;23.218;2023-11-21T00:18:21;6.62;;;2.55;;
43552;SDS011;29153;42.696;23.218;2023-11-21T00:20:48;6.05;;;2.60;;
43552;SDS011;29153;42.696;23.218;2023-11-21T00:23:16;5.85;;;2.58;;
43552;SDS011;29153;42.696;23.218;2023-11-21T00:25:43;7.37;;;2.58;;
43552;SDS011;29153;42.696;23.218;2023-11-21T00:28:11;6.58;;;2.55;;
43552;SDS011;29153;42.696;23.218;2023-11-21T00:30:38;5.33;;;1.92;;
43552;SDS011;29153;42.696;23.218;2023-11-21T00:33:06;6.30;;;2.85;;
43552;SDS011;29153;42.696;23.218;2023-11-21T00:35:33;5.50;;;2.10;;
43552;SDS011;29153;42.696;23.218;2023-11-21T00:38:01;6.85;;;1.92;;
43552;SDS011;29153;42.696;23.218;2023-11-21T00:40:28;5.10;;;1.80;;
43552;SDS011;29153;42.696;23.218;2023-11-21T00:42:56;6.05;;;1.92;;
43552;SDS011;29153;42.696;23.218;2023-11-21T00:45:23;3.75;;;1.52;;
43552;SDS011;29153;42.696;23.218;2023-11-21T00:47:51;3.85;;;1.75;;
43552;SDS011;29153;42.696;23.218;2023-11-21T00:50:18;6.60;;;1.90;;
43552;SDS011;29153;42.696;23.218;2023-11-21T00:52:46;5.80;;;1.85;;
43552;SDS011;29153;42.696;23.218;2023-11-21T00:55:14;5.12;;;1.87;;
43552;SDS011;29153;42.696;23.218;2023-11-21T00:57:43;6.30;;;1.80;;
43552;SDS011;29153;42.696;23.218;2023-11-21T01:00:10;3.87;;;1.55;;
43552;SDS011;29153;42.696;23.218;2023-11-21T01:02:43;5.50;;;1.50;;
43552;SDS011;29153;42.696;23.218;2023-11-21T01:05:11;3.70;;;1.30;;
43552;SDS011;29153;42.696;23.218;2023-11-21T01:07:38;4.08;;;1.40;;
43552;SDS011;29153;42.696;23.218;2023-11-21T01:10:06;3.20;;;1.45;;
43552;SDS011;29153;42.696;23.218;2023-11-21T01:12:35;3.77;;;1.47;;
43552;SDS011;29153;42.696;23.218;2023-11-21T01:17:33;3.47;;;1.57;;
43552;SDS011;29153;42.696;23.218;2023-11-21T01:20:02;3.42;;;1.47;;
43552;SDS011;29153;42.696;23.218;2023-11-21T01:22:32;3.75;;;1.22;;
43552;SDS011;29153;42.696;23.218;2023-11-21T01:24:59;4.78;;;1.40;;
43552;SDS011;29153;42.696;23.218;2023-11-21T01:27:28;3.02;;;1.20;;
43552;SDS011;29153;42.696;23.218;2023-11-21T01:29:56;5.78;;;1.72;;
43552;SDS011;29153;42.696;23.218;2023-11-21T01:32:23;3.98;;;1.42;;
43552;SDS011;29153;42.696;23.218;2023-11-21T01:34:51;3.92;;;1.70;;
43552;SDS011;29153;42.696;23.218;2023-11-21T01:37:18;4.47;;;1.62;;
43552;SDS011;29153;42.696;23.218;2023-11-21T01:39:47;5.20;;;2.02;;
43552;SDS011;29153;42.696;23.218;2023-11-21T01:42:15;5.47;;;2.00;;
43552;SDS011;29153;42.696;23.218;2023-11-21T01:44:44;5.85;;;2.62;;
43552;SDS011;29153;42.696;23.218;2023-11-21T01:47:12;5.87;;;1.90;;
43552;SDS011;29153;42.696;23.218;2023-11-21T01:49:43;2.95;;;1.35;;
43552;SDS011;29153;42.696;23.218;2023-11-21T01:52:13;3.55;;;1.32;;
43552;SDS011;29153;42.696;23.218;2023-11-21T01:54:41;7.28;;;1.77;;
43552;SDS011;29153;42.696;23.218;2023-11-21T01:57:09;5.78;;;1.60;;
43552;SDS011;29153;42.696;23.218;2023-11-21T01:59:37;6.97;;;2.40;;
43552;SDS011;29153;42.696;23.218;2023-11-21T02:02:07;4.08;;;1.57;;
43552;SDS011;29153;42.696;23.218;2023-11-21T02:04:35;3.67;;;1.37;;
43552;SDS011;29153;42.696;23.218;2023-11-21T02:07:03;5.15;;;1.52;;
43552;SDS011;29153;42.696;23.218;2023-11-21T02:09:34;5.58;;;2.08;;
43552;SDS011;29153;42.696;23.218;2023-11-21T02:12:03;5.00;;;1.98;;
43552;SDS011;29153;42.696;23.218;2023-11-21T02:14:31;8.60;;;3.50;;
43552;SDS011;29153;42.696;23.218;2023-11-21T02:16:59;3.85;;;1.02;;
43552;SDS011;29153;42.696;23.218;2023-11-21T02:19:26;3.27;;;1.37;;
43552;SDS011;29153;42.696;23.218;2023-11-21T02:22:00;4.58;;;1.87;;
43552;SDS011;29153;42.696;23.218;2023-11-21T02:24:27;3.62;;;1.15;;
43552;SDS011;29153;42.696;23.218;2023-11-21T02:26:54;4.75;;;1.80;;
43552;SDS011;29153;42.696;23.218;2023-11-21T02:29:22;3.47;;;1.17;;
43552;SDS011;29153;42.696;23.218;2023-11-21T02:31:51;2.92;;;1.32;;
43552;SDS011;29153;42.696;23.218;2023-11-21T02:34:20;4.12;;;1.22;;
43552;SDS011;29153;42.696;23.218;2023-11-21T02:36:48;2.98;;;1.30;;
43552;SDS011;29153;42.696;23.218;2023-11-21T02:39:16;5.12;;;1.32;;
43552;SDS011;29153;42.696;23.218;2023-11-21T02:41:46;5.22;;;1.50;;
43552;SDS011;29153;42.696;23.218;2023-11-21T02:44:13;4.30;;;2.10;;
43552;SDS011;29153;42.696;23.218;2023-11-21T02:46:41;3.58;;;1.25;;
43552;SDS011;29153;42.696;23.218;2023-11-21T02:49:08;5.33;;;1.42;;
43552;SDS011;29153;42.696;23.218;2023-11-21T02:54:05;4.25;;;1.42;;
43552;SDS011;29153;42.696;23.218;2023-11-21T02:56:33;3.40;;;1.20;;
43552;SDS011;29153;42.696;23.218;2023-11-21T02:59:01;4.83;;;1.65;;
43552;SDS011;29153;42.696;23.218;2023-11-21T03:01:28;4.03;;;1.82;;
43552;SDS011;29153;42.696;23.218;2023-11-21T03:03:56;4.92;;;1.70;;
43552;SDS011;29153;42.696;23.218;2023-11-21T03:06:23;3.70;;;1.75;;
43552;SDS011;29153;42.696;23.218;2023-11-21T03:08:51;5.42;;;1.92;;
43552;SDS011;29153;42.696;23.218;2023-11-21T03:11:18;4.95;;;1.72;;
43552;SDS011;29153;42.696;23.218;2023-11-21T03:13:46;4.47;;;1.72;;
43552;SDS011;29153;42.696;23.218;2023-11-21T03:16:15;4.22;;;1.62;;
43552;SDS011;29153;42.696;23.218;2023-11-21T03:18:44;5.58;;;2.10;;
43552;SDS011;29153;42.696;23.218;2023-11-21T03:21:12;3.75;;;1.75;;
43552;SDS011;29153;42.696;23.218;2023-11-21T03:23:39;4.50;;;2.00;;
43552;SDS011;29153;42.696;23.218;2023-11-21T03:26:11;5.15;;;1.90;;
43552;SDS011;29153;42.696;23.218;2023-11-21T03:28:38;5.17;;;2.10;;
43552;SDS011;29153;42.696;23.218;2023-11-21T03:31:05;4.60;;;2.30;;
43552;SDS011;29153;42.696;23.218;2023-11-21T03:33:34;5.95;;;1.80;;
43552;SDS011;29153;42.696;23.218;2023-11-21T03:36:02;6.42;;;2.00;;
43552;SDS011;29153;42.696;23.218;2023-11-21T03:38:29;6.58;;;1.98;;
43552;SDS011;29153;42.696;23.218;2023-11-21T03:40:57;5.35;;;2.27;;
43552;SDS011;29153;42.696;23.218;2023-11-21T03:43:24;6.70;;;2.17;;
43552;SDS011;29153;42.696;23.218;2023-11-21T03:45:52;9.35;;;2.72;;
43552;SDS011;29153;42.696;23.218;2023-11-21T03:48:19;4.70;;;1.87;;
43552;SDS011;29153;42.696;23.218;2023-11-21T03:50:47;5.08;;;2.08;;
43552;SDS011;29153;42.696;23.218;2023-11-21T03:53:14;6.30;;;2.27;;
43552;SDS011;29153;42.696;23.218;2023-11-21T03:55:42;6.67;;;2.35;;
43552;SDS011;29153;42.696;23.218;2023-11-21T03:58:09;6.20;;;2.30;;
43552;SDS011;29153;42.696;23.218;2023-11-21T04:00:37;8.18;;;2.90;;
43552;SDS011;29153;42.696;23.218;2023-11-21T04:03:04;8.03;;;3.22;;
43552;SDS011;29153;42.696;23.218;2023-11-21T04:05:32;5.83;;;2.72;;
43552;SDS011;29153;42.696;23.218;2023-11-21T04:08:00;7.58;;;2.58;;
43552;SDS011;29153;42.696;23.218;2023-11-21T04:10:27;7.65;;;2.47;;
43552;SDS011;29153;42.696;23.218;2023-11-21T04:12:54;4.42;;;1.87;;
43552;SDS011;29153;42.696;23.218;2023-11-21T04:15:22;4.80;;;2.12;;
43552;SDS011;29153;42.696;23.218;2023-11-21T04:17:50;6.45;;;2.33;;
43552;SDS011;29153;42.696;23.218;2023-11-21T04:20:17;5.40;;;2.33;;
43552;SDS011;29153;42.696;23.218;2023-11-21T04:22:45;7.83;;;2.15;;
43552;SDS011;29153;42.696;23.218;2023-11-21T04:25:16;5.10;;;1.92;;
43552;SDS011;29153;42.696;23.218;2023-11-21T04:27:44;8.40;;;1.98;;
43552;SDS011;29153;42.696;23.218;2023-11-21T04:30:12;6.92;;;2.52;;
43552;SDS011;29153;42.696;23.218;2023-11-21T04:32:40;4.28;;;2.15;;
43552;SDS011;29153;42.696;23.218;2023-11-21T04:35:08;7.35;;;3.02;;
43552;SDS011;29153;42.696;23.218;2023-11-21T04:37:35;5.03;;;2.67;;
43552;SDS011;29153;42.696;23.218;2023-11-21T04:40:03;5.37;;;2.60;;
43552;SDS011;29153;42.696;23.218;2023-11-21T04:42:34;6.20;;;2.83;;
43552;SDS011;29153;42.696;23.218;2023-11-21T04:45:03;10.68;;;3.42;;
43552;SDS011;29153;42.696;23.218;2023-11-21T04:47:33;9.70;;;3.10;;
43552;SDS011;29153;42.696;23.218;2023-11-21T04:50:01;6.65;;;3.20;;
43552;SDS011;29153;42.696;23.218;2023-11-21T04:52:29;7.25;;;3.40;;
43552;SDS011;29153;42.696;23.218;2023-11-21T04:57:26;5.72;;;3.25;;
43552;SDS011;29153;42.696;23.218;2023-11-21T04:59:57;7.35;;;3.27;;
43552;SDS011;29153;42.696;23.218;2023-11-21T05:02:24;6.08;;;2.98;;
43552;SDS011;29153;42.696;23.218;2023-11-21T05:04:52;8.90;;;3.58;;
43552;SDS011;29153;42.696;23.218;2023-11-21T05:07:19;7.62;;;3.22;;
43552;SDS011;29153;42.696;23.218;2023-11-21T05:09:48;8.28;;;3.47;;
43552;SDS011;29153;42.696;23.218;2023-11-21T05:12:15;5.87;;;2.85;;
43552;SDS011;29153;42.696;23.218;2023-11-21T05:14:43;8.83;;;3.47;;
43552;SDS011;29153;42.696;23.218;2023-11-21T05:17:10;6.83;;;2.85;;
43552;SDS011;29153;42.696;23.218;2023-11-21T05:19:38;8.13;;;3.55;;
43552;SDS011;29153;42.696;23.218;2023-11-21T05:22:06;7.95;;;3.00;;
43552;SDS011;29153;42.696;23.218;2023-11-21T05:24:34;8.83;;;4.12;;
43552;SDS011;29153;42.696;23.218;2023-11-21T05:27:01;8.20;;;3.60;;
43552;SDS011;29153;42.696;23.218;2023-11-21T05:29:29;5.87;;;2.92;;
43552;SDS011;29153;42.696;23.218;2023-11-21T05:31:56;6.83;;;3.65;;
43552;SDS011;29153;42.696;23.218;2023-11-21T05:34:24;7.45;;;3.33;;
43552;SDS011;29153;42.696;23.218;2023-11-21T05:36:51;7.20;;;2.62;;
43552;SDS011;29153;42.696;23.218;2023-11-21T05:39:19;7.45;;;3.50;;
43552;SDS011;29153;42.696;23.218;2023-11-21T05:41:47;10.05;;;4.15;;
43552;SDS011;29153;42.696;23.218;2023-11-21T05:44:15;6.37;;;3.27;;
43552;SDS011;29153;42.696;23.218;2023-11-21T05:46:43;8.10;;;3.37;;
43552;SDS011;29153;42.696;23.218;2023-11-21T05:49:10;12.30;;;3.87;;
43552;SDS011;29153;42.696;23.218;2023-11-21T05:51:38;11.80;;;4.35;;
43552;SDS011;29153;42.696;23.218;2023-11-21T05:54:06;8.40;;;3.37;;
43552;SDS011;29153;42.696;23.218;2023-11-21T05:56:33;7.20;;;4.08;;
43552;SDS011;29153;42.696;23.218;2023-11-21T05:59:01;10.15;;;3.40;;
43552;SDS011;29153;42.696;23.218;2023-11-21T06:01:28;8.33;;;3.47;;
43552;SDS011;29153;42.696;23.218;2023-11-21T06:03:56;7.83;;;3.35;;
43552;SDS011;29153;42.696;23.218;2023-11-21T06:06:24;10.13;;;3.17;;
43552;SDS011;29153;42.696;23.218;2023-11-21T06:08:52;6.17;;;3.17;;
43552;SDS011;29153;42.696;23.218;2023-11-21T06:11:19;7.33;;;3.80;;
43552;SDS011;29153;42.696;23.218;2023-11-21T06:13:47;7.37;;;3.45;;
43552;SDS011;29153;42.696;23.218;2023-11-21T06:16:15;7.25;;;3.50;;
43552;SDS011;29153;42.696;23.218;2023-11-21T06:18:45;7.42;;;3.10;;
43552;SDS011;29153;42.696;23.218;2023-11-21T06:21:13;10.05;;;3.98;;
43552;SDS011;29153;42.696;23.218;2023-11-21T06:23:42;7.67;;;3.17;;
43552;SDS011;29153;42.696;23.218;2023-11-21T06:26:09;6.33;;;3.60;;
43552;SDS011;29153;42.696;23.218;2023-11-21T06:28:38;9.65;;;3.98;;
43552;SDS011;29153;42.696;23.218;2023-11-21T06:31:06;7.10;;;2.92;;
43552;SDS011;29153;42.696;23.218;2023-11-21T06:33:34;9.85;;;3.02;;
43552;SDS011;29153;42.696;23.218;2023-11-21T06:36:01;8.70;;;3.67;;
43552;SDS011;29153;42.696;23.218;2023-11-21T06:38:29;8.78;;;3.60;;
43552;SDS011;29153;42.696;23.218;2023-11-21T06:40:58;8.58;;;3.98;;
43552;SDS011;29153;42.696;23.218;2023-11-21T06:43:27;6.92;;;3.22;;
43552;SDS011;29153;42.696;23.218;2023-11-21T06:45:57;9.15;;;3.40;;
43552;SDS011;29153;42.696;23.218;2023-11-21T06:48:24;8.73;;;4.37;;
43552;SDS011;29153;42.696;23.218;2023-11-21T06:50:52;9.18;;;3.92;;
43552;SDS011;29153;42.696;23.218;2023-11-21T06:53:20;10.40;;;4.10;;
43552;SDS011;29153;42.696;23.218;2023-11-21T06:55:47;11.70;;;4.45;;
43552;SDS011;29153;42.696;23.218;2023-11-21T06:58:15;11.15;;;4.12;;
43552;SDS011;29153;42.696;23.218;2023-11-21T07:00:42;13.30;;;4.42;;
43552;SDS011;29153;42.696;23.218;2023-11-21T07:03:12;13.83;;;6.78;;
43552;SDS011;29153;42.696;23.218;2023-11-21T07:05:39;16.48;;;7.87;;
43552;SDS011;29153;42.696;23.218;2023-11-21T07:08:07;23.30;;;9.23;;
43552;SDS011;29153;42.696;23.218;2023-11-21T07:10:35;22.90;;;11.30;;
43552;SDS011;29153;42.696;23.218;2023-11-21T07:13:03;20.77;;;11.20;;
43552;SDS011;29153;42.696;23.218;2023-11-21T07:17:59;22.75;;;12.28;;
43552;SDS011;29153;42.696;23.218;2023-11-21T07:20:28;23.98;;;12.03;;
43552;SDS011;29153;42.696;23.218;2023-11-21T07:22:56;29.02;;;14.38;;
43552;SDS011;29153;42.696;23.218;2023-11-21T07:25:23;26.97;;;14.53;;
43552;SDS011;29153;42.696;23.218;2023-11-21T07:27:51;28.77;;;15.35;;
43552;SDS011;29153;42.696;23.218;2023-11-21T07:32:48;32.85;;;14.43;;
43552;SDS011;29153;42.696;23.218;2023-11-21T07:35:16;31.35;;;15.75;;
43552;SDS011;29153;42.696;23.218;2023-11-21T07:37:43;34.88;;;15.35;;
43552;SDS011;29153;42.696;23.218;2023-11-21T07:40:12;27.58;;;14.90;;
43552;SDS011;29153;42.696;23.218;2023-11-21T07:42:40;32.88;;;18.52;;
43552;SDS011;29153;42.696;23.218;2023-11-21T07:45:08;30.60;;;16.97;;
43552;SDS011;29153;42.696;23.218;2023-11-21T07:50:04;30.77;;;16.05;;
43552;SDS011;29153;42.696;23.218;2023-11-21T07:52:33;26.45;;;15.83;;
43552;SDS011;29153;42.696;23.218;2023-11-21T07:55:00;36.95;;;17.90;;
43552;SDS011;29153;42.696;23.218;2023-11-21T07:57:28;31.55;;;16.62;;
43552;SDS011;29153;42.696;23.218;2023-11-21T07:59:55;35.45;;;18.00;;
43552;SDS011;29153;42.696;23.218;2023-11-21T08:02:23;32.70;;;18.07;;
43552;SDS011;29153;42.696;23.218;2023-11-21T08:07:18;30.50;;;17.98;;
43552;SDS011;29153;42.696;23.218;2023-11-21T08:09:45;34.15;;;16.87;;
43552;SDS011;29153;42.696;23.218;2023-11-21T08:12:15;26.82;;;15.08;;
43552;SDS011;29153;42.696;23.218;2023-11-21T08:14:43;32.60;;;17.07;;
43552;SDS011;29153;42.696;23.218;2023-11-21T08:17:10;35.92;;;17.37;;
43552;SDS011;29153;42.696;23.218;2023-11-21T08:19:38;53.15;;;30.68;;
43552;SDS011;29153;42.696;23.218;2023-11-21T08:22:05;32.00;;;18.05;;
43552;SDS011;29153;42.696;23.218;2023-11-21T08:24:33;39.67;;;24.52;;
43552;SDS011;29153;42.696;23.218;2023-11-21T08:27:01;31.87;;;16.87;;
43552;SDS011;29153;42.696;23.218;2023-11-21T08:31:57;30.15;;;16.73;;
43552;SDS011;29153;42.696;23.218;2023-11-21T08:34:25;30.85;;;16.35;;
43552;SDS011;29153;42.696;23.218;2023-11-21T08:36:54;28.42;;;16.93;;
43552;SDS011;29153;42.696;23.218;2023-11-21T08:39:22;28.40;;;15.50;;
43552;SDS011;29153;42.696;23.218;2023-11-21T08:41:50;30.15;;;16.15;;
43552;SDS011;29153;42.696;23.218;2023-11-21T08:44:18;28.87;;;15.53;;
43552;SDS011;29153;42.696;23.218;2023-11-21T08:46:45;23.40;;;14.23;;
43552;SDS011;29153;42.696;23.218;2023-11-21T08:49:12;26.00;;;12.82;;
43552;SDS011;29153;42.696;23.218;2023-11-21T08:51:41;19.67;;;10.82;;
43552;SDS011;29153;42.696;23.218;2023-11-21T08:54:08;21.85;;;12.88;;
43552;SDS011;29153;42.696;23.218;2023-11-21T08:56:37;23.75;;;12.47;;
43552;SDS011;29153;42.696;23.218;2023-11-21T08:59:04;27.15;;;14.10;;
43552;SDS011;29153;42.696;23.218;2023-11-21T09:01:33;24.00;;;14.50;;
43552;SDS011;29153;42.696;23.218;2023-11-21T09:04:00;24.80;;;14.07;;
43552;SDS011;29153;42.696;23.218;2023-11-21T09:06:28;27.40;;;14.70;;
43552;SDS011;29153;42.696;23.218;2023-11-21T09:08:55;34.53;;;16.05;;
43552;SDS011;29153;42.696;23.218;2023-11-21T09:11:23;31.37;;;15.55;;
43552;SDS011;29153;42.696;23.218;2023-11-21T09:13:52;31.75;;;16.75;;
43552;SDS011;29153;42.696;23.218;2023-11-21T09:16:20;32.93;;;17.52;;
43552;SDS011;29153;42.696;23.218;2023-11-21T09:18:47;33.53;;;16.90;;
43552;SDS011;29153;42.696;23.218;2023-11-21T09:21:15;34.60;;;18.60;;
43552;SDS011;29153;42.696;23.218;2023-11-21T09:23:45;33.15;;;17.57;;
43552;SDS011;29153;42.696;23.218;2023-11-21T09:26:13;28.57;;;15.88;;
43552;SDS011;29153;42.696;23.218;2023-11-21T09:28:42;25.75;;;14.20;;
43552;SDS011;29153;42.696;23.218;2023-11-21T09:31:13;28.92;;;15.68;;
43552;SDS011;29153;42.696;23.218;2023-11-21T09:33:44;32.30;;;17.23;;
43552;SDS011;29153;42.696;23.218;2023-11-21T09:36:13;30.77;;;15.95;;
43552;SDS011;29153;42.696;23.218;2023-11-21T09:38:41;35.65;;;18.87;;
43552;SDS011;29153;42.696;23.218;2023-11-21T09:41:11;31.70;;;18.32;;
43552;SDS011;29153;42.696;23.218;2023-11-21T09:43:41;37.75;;;19.07;;
43552;SDS011;29153;42.696;23.218;2023-11-21T09:46:10;32.50;;;17.15;;
43552;SDS011;29153;42.696;23.218;2023-11-21T09:48:41;43.13;;;21.62;;
43552;SDS011;29153;42.696;23.218;2023-11-21T09:51:09;37.78;;;20.97;;
43552;SDS011;29153;42.696;23.218;2023-11-21T09:53:38;48.33;;;24.60;;
43552;SDS011;29153;42.696;23.218;2023-11-21T09:56:08;49.50;;;30.82;;
43552;SDS011;29153;42.696;23.218;2023-11-21T09:58:36;53.50;;;30.70;;
43552;SDS011;29153;42.696;23.218;2023-11-21T10:01:04;39.23;;;24.20;;
43552;SDS011;29153;42.696;23.218;2023-11-21T10:03:35;40.73;;;23.12;;
43552;SDS011;29153;42.696;23.218;2023-11-21T10:06:04;33.20;;;18.57;;
43552;SDS011;29153;42.696;23.218;2023-11-21T10:08:33;29.85;;;16.25;;
43552;SDS011;29153;42.696;23.218;2023-11-21T10:11:02;29.60;;;16.80;;
43552;SDS011;29153;42.696;23.218;2023-11-21T10:13:32;30.55;;;15.43;;
43552;SDS011;29153;42.696;23.218;2023-11-21T10:16:00;36.17;;;18.15;;
43552;SDS011;29153;42.696;23.218;2023-11-21T10:18:31;32.45;;;17.02;;
43552;SDS011;29153;42.696;23.218;2023-11-21T10:21:00;32.93;;;18.05;;
43552;SDS011;29153;42.696;23.218;2023-11-21T10:23:29;34.40;;;18.35;;
43552;SDS011;29153;42.696;23.218;2023-11-21T10:25:56;30.30;;;16.40;;
43552;SDS011;29153;42.696;23.218;2023-11-21T10:28:26;27.73;;;15.65;;
43552;SDS011;29153;42.696;23.218;2023-11-21T10:30:54;35.35;;;19.62;;
43552;SDS011;29153;42.696;23.218;2023-11-21T10:33:29;43.58;;;22.50;;
43552;SDS011;29153;42.696;23.218;2023-11-21T10:35:56;49.08;;;26.45;;
43552;SDS011;29153;42.696;23.218;2023-11-21T10:38:25;43.28;;;25.08;;
43552;SDS011;29153;42.696;23.218;2023-11-21T10:43:24;41.98;;;24.75;;
43552;SDS011;29153;42.696;23.218;2023-11-21T10:45:52;39.15;;;21.20;;
43552;SDS011;29153;42.696;23.218;2023-11-21T10:48:21;42.78;;;23.92;;
43552;SDS011;29153;42.696;23.218;2023-11-21T10:50:49;39.90;;;22.98;;
43552;SDS011;29153;42.696;23.218;2023-11-21T10:53:16;40.00;;;21.77;;
43552;SDS011;29153;42.696;23.218;2023-11-21T10:55:44;42.03;;;24.25;;
43552;SDS011;29153;42.696;23.218;2023-11-21T10:58:13;43.85;;;22.85;;
43552;SDS011;29153;42.696;23.218;2023-11-21T11:00:40;37.15;;;20.75;;
43552;SDS011;29153;42.696;23.218;2023-11-21T11:03:10;38.65;;;21.10;;
43552;SDS011;29153;42.696;23.218;2023-11-21T11:05:40;43.08;;;22.48;;
43552;SDS011;29153;42.696;23.218;2023-11-21T11:08:11;37.50;;;21.42;;
43552;SDS011;29153;42.696;23.218;2023-11-21T11:10:50;39.53;;;21.87;;
43552;SDS011;29153;42.696;23.218;2023-11-21T11:13:21;38.42;;;22.37;;
43552;SDS011;29153;42.696;23.218;2023-11-21T11:15:49;40.98;;;24.25;;
43552;SDS011;29153;42.696;23.218;2023-11-21T11:18:17;35.25;;;22.60;;
43552;SDS011;29153;42.696;23.218;2023-11-21T11:20:47;38.17;;;20.82;;
43552;SDS011;29153;42.696;23.218;2023-11-21T11:26:24;40.98;;;22.50;;
43552;SDS011;29153;42.696;23.218;2023-11-21T11:34:35;40.70;;;22.22;;
43552;SDS011;29153;42.696;23.218;2023-11-21T11:43:07;38.67;;;19.65;;
43552;SDS011;29153;42.696;23.218;2023-11-21T11:45:35;34.70;;;21.15;;
43552;SDS011;29153;42.696;23.218;2023-11-21T11:48:05;41.92;;;19.15;;
43552;SDS011;29153;42.696;23.218;2023-11-21T11:50:32;43.60;;;20.77;;
43552;SDS011;29153;42.696;23.218;2023-11-21T11:53:13;34.30;;;19.82;;
43552;SDS011;29153;42.696;23.218;2023-11-21T11:55:41;33.53;;;17.80;;
43552;SDS011;29153;42.696;23.218;2023-11-21T11:58:10;34.40;;;18.27;;
43552;SDS011;29153;42.696;23.218;2023-11-21T12:00:37;36.00;;;18.57;;
43552;SDS011;29153;42.696;23.218;2023-11-21T12:03:06;35.30;;;19.25;;
43552;SDS011;29153;42.696;23.218;2023-11-21T12:05:35;32.98;;;19.62;;
43552;SDS011;29153;42.696;23.218;2023-11-21T12:08:08;36.50;;;20.52;;
43552;SDS011;29153;42.696;23.218;2023-11-21T12:10:38;37.28;;;19.70;;
43552;SDS011;29153;42.696;23.218;2023-11-21T12:13:11;36.03;;;20.30;;
43552;SDS011;29153;42.696;23.218;2023-11-21T12:15:36;34.55;;;17.48;;
43552;SDS011;29153;42.696;23.218;2023-11-21T12:18:04;45.65;;;23.05;;
43552;SDS011;29153;42.696;23.218;2023-11-21T12:20:32;42.43;;;21.15;;
43552;SDS011;29153;42.696;23.218;2023-11-21T12:23:01;34.65;;;17.50;;
43552;SDS011;29153;42.696;23.218;2023-11-21T12:25:29;29.35;;;15.75;;
43552;SDS011;29153;42.696;23.218;2023-11-21T12:27:59;28.05;;;14.60;;
43552;SDS011;29153;42.696;23.218;2023-11-21T12:30:29;23.65;;;14.30;;
43552;SDS011;29153;42.696;23.218;2023-11-21T12:32:58;25.00;;;13.98;;
43552;SDS011;29153;42.696;23.218;2023-11-21T12:35:33;25.32;;;12.93;;
43552;SDS011;29153;42.696;23.218;2023-11-21T12:38:02;22.48;;;12.85;;
43552;SDS011;29153;42.696;23.218;2023-11-21T12:40:35;23.15;;;11.70;;
43552;SDS011;29153;42.696;23.218;2023-11-21T12:43:03;24.60;;;13.00;;
43552;SDS011;29153;42.696;23.218;2023-11-21T12:45:31;23.18;;;12.15;;
43552;SDS011;29153;42.696;23.218;2023-11-21T12:48:00;24.55;;;12.35;;
43552;SDS011;29153;42.696;23.218;2023-11-21T12:50:30;25.50;;;12.90;;
43552;SDS011;29153;42.696;23.218;2023-11-21T12:52:59;24.18;;;12.65;;
43552;SDS011;29153;42.696;23.218;2023-11-21T12:55:32;24.07;;;14.70;;
43552;SDS011;29153;42.696;23.218;2023-11-21T12:58:02;24.30;;;13.20;;
43552;SDS011;29153;42.696;23.218;2023-11-21T13:00:37;27.05;;;13.43;;
43552;SDS011;29153;42.696;23.218;2023-11-21T13:03:08;22.62;;;12.03;;
43552;SDS011;29153;42.696;23.218;2023-11-21T13:05:40;27.50;;;13.48;;
43552;SDS011;29153;42.696;23.218;2023-11-21T13:08:11;27.93;;;13.75;;
43552;SDS011;29153;42.696;23.218;2023-11-21T13:10:43;31.37;;;14.33;;
43552;SDS011;29153;42.696;23.218;2023-11-21T13:13:12;26.82;;;15.40;;
43552;SDS011;29153;42.696;23.218;2023-11-21T13:18:20;27.82;;;14.83;;
43552;SDS011;29153;42.696;23.218;2023-11-21T13:20:49;30.12;;;14.70;;
43552;SDS011;29153;42.696;23.218;2023-11-21T13:23:16;28.38;;;15.28;;
43552;SDS011;29153;42.696;23.218;2023-11-21T13:25:44;26.57;;;14.43;;
43552;SDS011;29153;42.696;23.218;2023-11-21T13:28:13;28.40;;;15.03;;
43552;SDS011;29153;42.696;23.218;2023-11-21T13:30:41;27.82;;;16.52;;
43552;SDS011;29153;42.696;23.218;2023-11-21T13:33:10;35.00;;;17.20;;
43552;SDS011;29153;42.696;23.218;2023-11-21T13:35:39;31.12;;;17.55;;
43552;SDS011;29153;42.696;23.218;2023-11-21T13:38:12;40.43;;;20.90;;
43552;SDS011;29153;42.696;23.218;2023-11-21T13:40:49;46.18;;;19.70;;
43552;SDS011;29153;42.696;23.218;2023-11-21T13:45:51;21.35;;;11.85;;
43552;SDS011;29153;42.696;23.218;2023-11-21T13:48:27;52.55;;;27.80;;
43552;SDS011;29153;42.696;23.218;2023-11-21T13:50:56;30.52;;;15.80;;
43552;SDS011;29153;42.696;23.218;2023-11-21T13:53:26;28.95;;;13.95;;
43552;SDS011;29153;42.696;23.218;2023-11-21T13:55:54;27.30;;;13.53;;
43552;SDS011;29153;42.696;23.218;2023-11-21T13:58:23;24.63;;;13.03;;
43552;SDS011;29153;42.696;23.218;2023-11-21T14:00:53;29.77;;;14.07;;
43552;SDS011;29153;42.696;23.218;2023-11-21T14:03:23;26.82;;;13.65;;
43552;SDS011;29153;42.696;23.218;2023-11-21T14:05:52;25.68;;;13.13;;
43552;SDS011;29153;42.696;23.218;2023-11-21T14:08:22;27.32;;;16.00;;
43552;SDS011;29153;42.696;23.218;2023-11-21T14:10:51;28.87;;;15.53;;
43552;SDS011;29153;42.696;23.218;2023-11-21T14:13:20;30.52;;;15.25;;
43552;SDS011;29153;42.696;23.218;2023-11-21T14:15:48;29.75;;;14.13;;
43552;SDS011;29153;42.696;23.218;2023-11-21T14:18:18;30.52;;;16.15;;
43552;SDS011;29153;42.696;23.218;2023-11-21T14:20:47;30.08;;;15.55;;
43552;SDS011;29153;42.696;23.218;2023-11-21T14:23:16;47.53;;;23.87;;
43552;SDS011;29153;42.696;23.218;2023-11-21T14:25:43;36.15;;;17.50;;
43552;SDS011;29153;42.696;23.218;2023-11-21T14:28:13;33.88;;;17.35;;
43552;SDS011;29153;42.696;23.218;2023-11-21T14:30:40;34.63;;;16.52;;
43552;SDS011;29153;42.696;23.218;2023-11-21T14:33:08;29.40;;;15.58;;
43552;SDS011;29153;42.696;23.218;2023-11-21T14:35:37;33.02;;;15.65;;
43552;SDS011;29153;42.696;23.218;2023-11-21T14:38:04;27.75;;;14.50;;
43552;SDS011;29153;42.696;23.218;2023-11-21T14:40:32;30.45;;;14.05;;
43552;SDS011;29153;42.696;23.218;2023-11-21T14:43:06;29.15;;;15.70;;
43552;SDS011;29153;42.696;23.218;2023-11-21T14:45:32;26.57;;;14.70;;
43552;SDS011;29153;42.696;23.218;2023-11-21T14:48:00;28.62;;;14.95;;
43552;SDS011;29153;42.696;23.218;2023-11-21T14:50:32;30.35;;;15.53;;
43552;SDS011;29153;42.696;23.218;2023-11-21T14:53:06;26.97;;;13.78;;
43552;SDS011;29153;42.696;23.218;2023-11-21T14:55:34;25.65;;;13.45;;
43552;SDS011;29153;42.696;23.218;2023-11-21T14:58:09;24.80;;;14.13;;
43552;SDS011;29153;42.696;23.218;2023-11-21T15:00:38;26.65;;;15.00;;
43552;SDS011;29153;42.696;23.218;2023-11-21T15:03:11;26.20;;;13.58;;
43552;SDS011;29153;42.696;23.218;2023-11-21T15:05:40;25.77;;;13.48;;
43552;SDS011;29153;42.696;23.218;2023-11-21T15:08:08;32.75;;;15.48;;
43552;SDS011;29153;42.696;23.218;2023-11-21T15:10:49;32.70;;;15.40;;